Предлагаем Вашему вниманию английскую версию страницы: AUTOTAF.ME 26408 - aviation weather forecast Palanga

AUTOTAF 26408 - авиапрогноз Паланга

Сегодня рассвет 04:57 UTC, восход солнца 05:36 UTC,
местный полдень 10:23 UTC, заход солнца 15:11 UTC,
наступление темноты 15:50 UTC.

Краткий прогноз 26408 на 9 часов

AUTOTAF.ME 26408 260800Z 2609/2618 17010MPS 9999 BKN008     
  BECMG 2613/2615 16006MPS  
  BECMG 2616/2618 16010MPS

Детальный прогноз 26408 на 24 часа

AUTOTAF.ME 26408 260800Z 2609/2709 17010MPS 9999 BKN008 TX13/2615Z TN12/2609Z   
  BECMG 2613/2615 16006MPS  
  BECMG 2616/2618 16010MPS    
  FM270300 21009MPS 9999 -RA OVC008 
  FM270600 25007MPS 9999 BKN008

Подробный табличный прогноз

Время (UTC) miniAUTOTAF на 3 ч WX FZLVL
M AGL
ICE TURB Т
(°С)
Тd
(°С)
f(%) QNH
(гПа)
WIND/T
06 18011MPS 9999 BKN008 2700 MOD SFC/FL20 12 10 86 1006 ...
09 17010MPS 9999 BKN008 2550 MOD SFC/FL20 12 10 87 1006 ...
12 19009MPS 9999 BKN008 2400 MOD FL90/FL110 MOD SFC/FL20 12 10 87 1006 ...
15 16006MPS 9999 BKN008 2700 MOD FL190/FL200 MOD SFC/FL20 13 11 88 1006 ...
18 16010MPS 9999 BKN008 2700 13 11 87 1006 ...
21 16010MPS 9999 BKN008 2250 FBL FL90/FL100 13 11 88 1004 ...
27.10.2020
00 17010MPS 9999 BKN008 2100 MOD FL90/FL100 MOD SFC/FL20 13 11 90 1004 ...
03 21009MPS 9999 -RA OVC008 -RA 2100 FBL FL90/FL110 MOD SFC/FL20 13 12 91 1004 ...
06 25007MPS 9999 BKN008 1950 FBL FL90/FL100 MOD SFC/FL20 12 10 87 1006 ...
09 24008MPS 9999 BKN009 1950 MOD FL170/FL190 MOD SFC/FL20 12 10 84 1008 ...
12 22008G13MPS 9999 BKN009 1950 FBL FL120/FL190 MOD SFC/FL20 12 9 83 1010 ...
15 21008G13MPS 9999 BKN009 1950 MOD FL90/FL100 MOD SFC/FL90 12 10 83 1009 ...
18 20008G13MPS 9999 -SHRA BKN009 BKN010CB -SHRA 1650 MOD FL90/FL150 MOD SFC/FL20 12 9 77 1010 ...
21 21011G16MPS 9999 -SHRA OVC016CB -SHRA 1500 MOD FL110/FL120 MOD SFC/FL20 12 8 77 1010 ...
28.10.2020
00 23011G16MPS 9999 -SHRA BKN009 BKN010CB -SHRA 1500 MOD FL90/FL100 MOD SFC/FL30 12 8 77 1011 ...
03 22011G16MPS 9999 -RA BKN017 -RA 1350 FBL FL50/FL60 MOD SFC/FL30 12 8 75 1011 ...


Широта 56°, долгота 20°, высота 0 м абс.
Средняя высота рельефа местности 0 м абс.
Прогнозы обновляются четыре раза в сутки: в 02, 08, 14, 20 ч всемирного времени.


Выбрать прогноз по другой модели Паланга
Онлайн-сводка гроз по Паланга (для РФ и ближнего зарубежья)
Карта фактических гроз в окрестностях Паланга
Динамические прогностические карты (ventusky.com)
Прогностическая карта высоты нижней границы облаков по Паланга (windy.com)
Выбрать другой город

Прогноз предназначен для личного научно-познавательного использования частными лицами
и не предназначен для принятия важных решений и выполнения реальных полётов воздушных судов

При копировании или ином использовании любых материалов данного сайта ссылка на © meteocenter.asia обязательна.

0.93/1.4